Time;durP1;ratioP1;P1;durP2;ratioP2;P2;SDS_P1;SDS_P2;PMS_P1;PMS_P2;Temp;Humidity;BMP_temperature;BMP_pressure;BME280_temperature;BME280_humidity;BME280_pressure;Samples;Min_cycle;Max_cycle;Signal;HPM_P1;HPM_P2
2023/09/22 00:02:11;;;;;;;0.50;0.50;;;19.00;70.60;;;;;;5172094;27;20521;-71
2023/09/22 00:04:37;;;;;;;0.30;0.30;;;19.00;70.60;;;;;;5173624;27;20018;-69
2023/09/22 00:07:02;;;;;;;0.43;0.43;;;19.00;70.70;;;;;;5173502;27;20351;-68
2023/09/22 00:09:28;;;;;;;0.52;0.52;;;19.00;70.90;;;;;;5173449;27;20250;-68
2023/09/22 00:11:54;;;;;;;0.40;0.40;;;19.00;70.80;;;;;;5173299;27;20089;-69
2023/09/22 00:14:19;;;;;;;0.85;0.85;;;19.00;70.90;;;;;;5173824;27;20045;-69
2023/09/22 00:16:45;;;;;;;0.40;0.40;;;19.00;70.90;;;;;;5173167;27;20101;-70
2023/09/22 00:19:10;;;;;;;0.40;0.40;;;19.00;70.80;;;;;;5173843;27;20039;-69
2023/09/22 00:21:36;;;;;;;0.40;0.40;;;19.00;70.60;;;;;;5173372;27;20029;-68
2023/09/22 00:24:02;;;;;;;0.40;0.40;;;19.00;70.60;;;;;;5173812;27;20031;-68
2023/09/22 00:26:28;;;;;;;0.50;0.50;;;19.00;70.50;;;;;;5174500;27;20079;-69
2023/09/22 00:28:53;;;;;;;0.40;0.40;;;18.90;70.50;;;;;;5178243;27;20034;-68
2023/09/22 00:31:19;;;;;;;0.50;0.50;;;18.90;70.60;;;;;;5177347;27;20506;-69
2023/09/22 00:33:47;;;;;;;0.40;0.40;;;18.90;70.70;;;;;;5177979;27;20035;-70
2023/09/22 00:36:14;;;;;;;0.43;0.43;;;18.90;70.70;;;;;;5174806;27;20121;-69
2023/09/22 00:38:41;;;;;;;0.40;0.40;;;18.90;70.80;;;;;;5156293;27;20034;-68
2023/09/22 00:41:06;;;;;;;0.35;0.35;;;18.90;70.80;;;;;;5156293;27;20018;-69
2023/09/22 00:43:32;;;;;;;0.40;0.40;;;18.90;70.80;;;;;;5156704;27;20031;-68
2023/09/22 00:45:58;;;;;;;0.40;0.40;;;18.90;70.90;;;;;;5156514;27;20037;-69
2023/09/22 00:48:28;;;;;;;0.40;0.40;;;18.90;70.80;;;;;;5156493;27;20395;-68
2023/09/22 00:50:55;;;;;;;0.40;0.40;;;18.90;70.90;;;;;;5156269;27;20360;-69
2023/09/22 00:53:23;;;;;;;0.40;0.40;;;18.90;70.60;;;;;;5165982;27;20267;-69
2023/09/22 00:55:51;;;;;;;0.40;0.40;;;18.90;70.60;;;;;;5176961;27;20033;-69
2023/09/22 00:58:17;;;;;;;0.60;0.60;;;18.80;70.50;;;;;;5177341;27;20030;-73
2023/09/22 01:00:47;;;;;;;0.40;0.40;;;18.90;70.70;;;;;;5177146;27;20050;-68
2023/09/22 01:03:13;;;;;;;0.40;0.40;;;18.90;70.90;;;;;;5176777;27;20378;-69
2023/09/22 01:05:39;;;;;;;0.50;0.50;;;18.90;70.90;;;;;;5176969;27;20026;-68
2023/09/22 01:08:05;;;;;;;0.40;0.40;;;19.00;71.00;;;;;;5176958;27;20030;-70
2023/09/22 01:10:38;;;;;;;0.40;0.40;;;19.00;71.00;;;;;;5176994;27;20026;-70
2023/09/22 01:13:05;;;;;;;0.32;0.32;;;19.10;71.20;;;;;;5177082;27;20030;-67
2023/09/22 01:15:33;;;;;;;0.32;0.32;;;19.10;71.20;;;;;;5176809;27;20105;-68
2023/09/22 01:17:59;;;;;;;0.50;0.50;;;19.20;71.40;;;;;;5176717;27;20038;-68
2023/09/22 01:20:24;;;;;;;0.40;0.40;;;19.20;71.50;;;;;;5176549;27;20021;-69
2023/09/22 01:22:50;;;;;;;0.40;0.40;;;19.20;71.40;;;;;;5176664;27;20515;-69
2023/09/22 01:25:15;;;;;;;0.50;0.50;;;19.30;71.30;;;;;;5176432;27;20027;-68
2023/09/22 01:27:41;;;;;;;0.68;0.65;;;19.30;71.50;;;;;;5176631;27;20122;-69
2023/09/22 01:30:07;;;;;;;0.40;0.40;;;19.30;71.50;;;;;;5176437;27;20030;-68
2023/09/22 01:32:37;;;;;;;0.40;0.40;;;19.30;71.50;;;;;;5176421;27;20069;-68
2023/09/22 01:35:04;;;;;;;0.40;0.40;;;19.40;71.20;;;;;;5176255;27;20067;-68
2023/09/22 01:37:35;;;;;;;0.50;0.50;;;19.40;71.20;;;;;;5163495;27;20038;-68
2023/09/22 01:40:00;;;;;;;0.30;0.30;;;19.50;71.20;;;;;;5155043;27;20023;-68
2023/09/22 01:42:26;;;;;;;0.40;0.40;;;19.50;71.20;;;;;;5155019;27;20079;-69
2023/09/22 01:44:52;;;;;;;0.40;0.40;;;19.50;71.10;;;;;;5155027;27;20087;-68
2023/09/22 01:47:17;;;;;;;0.40;0.40;;;19.50;71.00;;;;;;5155062;27;20117;-68
2023/09/22 01:49:43;;;;;;;0.52;0.52;;;19.50;71.10;;;;;;5155213;27;20057;-70
2023/09/22 01:52:08;;;;;;;0.38;0.38;;;19.50;71.10;;;;;;5155134;27;20038;-67
2023/09/22 01:54:35;;;;;;;0.40;0.40;;;19.50;71.20;;;;;;5155018;27;20030;-68
2023/09/22 01:57:00;;;;;;;0.40;0.40;;;19.50;71.20;;;;;;5155052;27;20494;-68
2023/09/22 01:59:26;;;;;;;0.50;0.50;;;19.50;71.10;;;;;;5174257;27;20022;-68
2023/09/22 02:01:51;;;;;;;0.40;0.40;;;19.50;71.20;;;;;;5175521;27;20023;-68
2023/09/22 02:04:17;;;;;;;0.40;0.40;;;19.50;71.00;;;;;;5175594;27;20014;-68
2023/09/22 02:06:44;;;;;;;0.38;0.38;;;19.50;71.20;;;;;;5174879;27;20426;-72
2023/09/22 02:09:09;;;;;;;0.40;0.40;;;19.50;71.00;;;;;;5176279;27;20379;-72
2023/09/22 02:11:35;;;;;;;0.40;0.40;;;19.50;71.00;;;;;;5175476;27;20026;-72
2023/09/22 02:14:01;;;;;;;0.40;0.40;;;19.50;71.00;;;;;;5175999;27;20041;-72
2023/09/22 02:16:27;;;;;;;6.60;0.85;;;19.50;71.00;;;;;;5175308;27;20022;-72
2023/09/22 02:18:52;;;;;;;0.40;0.40;;;19.50;71.00;;;;;;5175682;27;20030;-72
2023/09/22 02:21:18;;;;;;;0.50;0.50;;;19.50;71.00;;;;;;5175536;27;20026;-72
2023/09/22 02:23:43;;;;;;;0.75;0.75;;;19.50;71.00;;;;;;5175976;27;20034;-72
2023/09/22 02:26:09;;;;;;;0.38;0.38;;;19.50;71.00;;;;;;5175172;27;20042;-72
2023/09/22 02:28:35;;;;;;;0.38;0.38;;;19.50;70.90;;;;;;5175599;27;20038;-73
2023/09/22 02:31:01;;;;;;;0.40;0.40;;;19.50;70.60;;;;;;5175190;27;20478;-72
2023/09/22 02:33:26;;;;;;;0.40;0.40;;;19.40;70.60;;;;;;5175487;27;20026;-71
2023/09/22 02:35:52;;;;;;;0.47;0.47;;;19.40;70.60;;;;;;5175057;27;20078;-72
2023/09/22 02:38:17;;;;;;;0.40;0.40;;;19.40;70.70;;;;;;5156454;27;20038;-72
2023/09/22 02:40:46;;;;;;;0.40;0.40;;;19.30;70.50;;;;;;5154028;27;20118;-72
2023/09/22 02:43:12;;;;;;;0.55;0.55;;;19.30;70.60;;;;;;5154334;27;20038;-73
2023/09/22 02:45:40;;;;;;;0.40;0.40;;;19.30;70.40;;;;;;5153923;27;20066;-72
2023/09/22 02:48:06;;;;;;;2.65;1.33;;;19.20;70.20;;;;;;5153927;27;20039;-71
2023/09/22 02:50:33;;;;;;;0.40;0.40;;;19.10;70.30;;;;;;5153859;27;20053;-71
2023/09/22 02:52:59;;;;;;;0.50;0.50;;;19.10;70.30;;;;;;5154053;27;20038;-71
2023/09/22 02:55:24;;;;;;;0.50;0.50;;;19.00;70.20;;;;;;5153863;27;20473;-71
2023/09/22 02:57:50;;;;;;;0.40;0.40;;;19.00;70.00;;;;;;5159556;27;20083;-72
2023/09/22 03:00:20;;;;;;;0.40;0.40;;;18.90;69.90;;;;;;5174632;27;20090;-72
2023/09/22 03:02:47;;;;;;;0.40;0.40;;;18.80;69.90;;;;;;5174762;27;20022;-71
2023/09/22 03:05:16;;;;;;;0.40;0.40;;;18.80;70.00;;;;;;5174593;27;20026;-71
2023/09/22 03:07:42;;;;;;;0.50;0.50;;;18.70;70.10;;;;;;5174655;27;20426;-71
2023/09/22 03:10:10;;;;;;;0.50;0.50;;;18.70;70.60;;;;;;5174503;27;20364;-71
2023/09/22 03:12:37;;;;;;;0.40;0.40;;;18.80;70.70;;;;;;5173058;27;20030;-71
2023/09/22 03:15:04;;;;;;;0.30;0.30;;;18.70;71.10;;;;;;5174110;27;20033;-71
2023/09/22 03:17:29;;;;;;;0.40;0.40;;;18.70;71.30;;;;;;5174504;27;20117;-68
2023/09/22 03:19:58;;;;;;;0.45;0.45;;;18.80;71.30;;;;;;5174499;27;20098;-68
2023/09/22 03:22:24;;;;;;;0.65;0.65;;;18.80;71.40;;;;;;5174527;27;20026;-68
2023/09/22 03:24:50;;;;;;;0.50;0.50;;;18.80;71.60;;;;;;5174244;27;20513;-68
2023/09/22 03:27:16;;;;;;;0.40;0.40;;;18.90;71.60;;;;;;5174172;27;20054;-67
2023/09/22 03:29:41;;;;;;;0.30;0.30;;;19.00;71.50;;;;;;5173963;27;20022;-67
2023/09/22 03:32:07;;;;;;;0.50;0.50;;;19.00;71.60;;;;;;5174227;27;20022;-67
2023/09/22 03:34:36;;;;;;;0.40;0.40;;;19.10;71.60;;;;;;5173960;27;20482;-67
2023/09/22 03:37:08;;;;;;;0.40;0.40;;;19.10;71.40;;;;;;5165823;27;20528;-67
2023/09/22 03:39:33;;;;;;;0.50;0.50;;;19.10;71.30;;;;;;5151604;27;20026;-67
2023/09/22 03:41:59;;;;;;;0.40;0.40;;;19.10;71.10;;;;;;5152845;27;20022;-68
2023/09/22 03:44:25;;;;;;;0.50;0.50;;;19.10;71.00;;;;;;5153273;27;20014;-67
2023/09/22 03:46:50;;;;;;;0.75;0.75;;;19.10;70.80;;;;;;5152826;27;20502;-67
2023/09/22 03:49:16;;;;;;;0.32;0.32;;;19.10;70.70;;;;;;5153325;27;20032;-67
2023/09/22 03:51:42;;;;;;;0.35;0.35;;;19.00;70.70;;;;;;5152903;27;20027;-67
2023/09/22 03:54:08;;;;;;;0.43;0.43;;;19.00;70.60;;;;;;5153351;27;20018;-68
2023/09/22 03:56:37;;;;;;;0.40;0.40;;;19.00;70.70;;;;;;5152824;27;20026;-67
2023/09/22 03:59:03;;;;;;;0.40;0.40;;;19.00;70.90;;;;;;5169304;27;20030;-67
2023/09/22 04:01:29;;;;;;;0.40;0.40;;;19.00;70.80;;;;;;5173150;27;20029;-69
2023/09/22 04:03:55;;;;;;;0.30;0.30;;;19.00;70.60;;;;;;5174421;27;20058;-67
2023/09/22 04:06:20;;;;;;;0.35;0.35;;;19.00;70.60;;;;;;5173686;27;20087;-67
2023/09/22 04:08:48;;;;;;;0.40;0.40;;;19.00;70.70;;;;;;5173878;27;20105;-68
2023/09/22 04:11:14;;;;;;;0.52;0.52;;;18.90;70.80;;;;;;5173629;27;20498;-67
2023/09/22 04:13:40;;;;;;;0.45;0.45;;;18.90;70.80;;;;;;5172410;27;20037;-67
2023/09/22 04:16:06;;;;;;;0.40;0.40;;;19.00;71.00;;;;;;5173480;27;20424;-68
2023/09/22 04:18:32;;;;;;;0.32;0.32;;;19.00;71.00;;;;;;5173933;27;20034;-68
2023/09/22 04:21:01;;;;;;;0.50;0.50;;;19.10;71.10;;;;;;5172501;27;20028;-68
2023/09/22 04:23:27;;;;;;;0.40;0.40;;;19.10;71.00;;;;;;5173811;27;20371;-66
2023/09/22 04:25:59;;;;;;;0.40;0.40;;;19.10;70.90;;;;;;5173268;27;20026;-67
2023/09/22 04:28:25;;;;;;;0.40;0.40;;;19.10;70.90;;;;;;5173867;27;20054;-71
2023/09/22 04:30:51;;;;;;;1.20;0.98;;;19.10;70.80;;;;;;5173177;27;20064;-71
2023/09/22 04:33:17;;;;;;;0.40;0.40;;;19.20;70.60;;;;;;5173941;27;20110;-71
2023/09/22 04:35:43;;;;;;;0.45;0.45;;;19.10;70.50;;;;;;5173485;27;20438;-71
2023/09/22 04:38:10;;;;;;;0.50;0.47;;;19.10;70.50;;;;;;5168493;27;20045;-71
2023/09/22 04:40:39;;;;;;;0.35;0.35;;;19.10;70.10;;;;;;5172927;27;20022;-70
2023/09/22 04:43:07;;;;;;;0.57;0.57;;;19.00;70.10;;;;;;5173649;27;20026;-70
2023/09/22 04:45:36;;;;;;;0.40;0.40;;;18.80;70.00;;;;;;5172604;27;20490;-71
2023/09/22 04:48:04;;;;;;;0.40;0.40;;;18.80;70.20;;;;;;5173627;27;20037;-70
2023/09/22 04:50:31;;;;;;;0.40;0.40;;;18.80;70.30;;;;;;5173473;27;20018;-70
2023/09/22 04:52:57;;;;;;;0.55;0.55;;;18.80;70.60;;;;;;5173360;27;20038;-71
2023/09/22 04:55:22;;;;;;;0.40;0.40;;;18.90;70.70;;;;;;5173299;27;20105;-70
2023/09/22 04:57:48;;;;;;;0.50;0.50;;;18.90;70.60;;;;;;5173149;27;20034;-69
2023/09/22 05:00:19;;;;;;;0.47;0.47;;;18.90;70.30;;;;;;5173227;27;20022;-70
2023/09/22 05:03:06;;;;;;;;;;;18.90;70.20;;;;;;5172337;27;20379;-70
2023/09/22 05:05:32;;;;;;;0.40;0.40;;;18.80;70.20;;;;;;5173212;27;20282;-70
2023/09/22 05:07:58;;;;;;;0.45;0.45;;;18.80;70.30;;;;;;5173297;27;21034;-70
2023/09/22 05:10:23;;;;;;;0.50;0.50;;;18.80;70.50;;;;;;5171677;27;20117;-70
2023/09/22 05:12:52;;;;;;;0.75;0.75;;;18.80;70.60;;;;;;5172947;27;20483;-70
2023/09/22 05:15:18;;;;;;;0.45;0.45;;;18.70;70.70;;;;;;5175990;27;20459;-70
2023/09/22 05:17:43;;;;;;;0.57;0.57;;;18.70;70.90;;;;;;5176322;27;20474;-71
2023/09/22 05:20:15;;;;;;;0.50;0.50;;;18.80;70.70;;;;;;5176962;27;20022;-70
2023/09/22 05:22:42;;;;;;;0.50;0.50;;;18.80;70.60;;;;;;5176908;27;20467;-71
2023/09/22 05:25:09;;;;;;;0.40;0.40;;;18.80;70.40;;;;;;5176918;27;20467;-70
2023/09/22 05:27:35;;;;;;;0.50;0.50;;;18.80;70.30;;;;;;5176822;27;20380;-71
2023/09/22 05:30:03;;;;;;;0.50;0.50;;;18.70;69.90;;;;;;5175702;27;20018;-70
2023/09/22 05:32:28;;;;;;;0.68;0.68;;;18.70;69.80;;;;;;5168715;27;20066;-70
2023/09/22 05:34:54;;;;;;;0.40;0.40;;;18.70;69.90;;;;;;5171429;27;20019;-71
2023/09/22 05:37:19;;;;;;;0.65;0.65;;;18.60;70.10;;;;;;5176448;27;20074;-71
2023/09/22 05:39:45;;;;;;;0.50;0.50;;;18.60;70.30;;;;;;5164571;27;20432;-69
2023/09/22 05:42:11;;;;;;;0.40;0.40;;;18.60;70.20;;;;;;5175151;27;20034;-71
2023/09/22 05:44:37;;;;;;;0.50;0.50;;;18.60;70.50;;;;;;5168686;27;20368;-71
2023/09/22 05:47:03;;;;;;;0.40;0.40;;;18.60;70.50;;;;;;5172742;27;20034;-71
2023/09/22 05:49:28;;;;;;;0.40;0.40;;;18.60;70.70;;;;;;5166687;27;20356;-70
2023/09/22 05:51:54;;;;;;;0.68;0.68;;;18.70;70.60;;;;;;5169432;27;20509;-70
2023/09/22 05:54:20;;;;;;;0.47;0.47;;;18.70;70.50;;;;;;5172855;27;20445;-70
2023/09/22 05:56:46;;;;;;;0.50;0.50;;;18.70;70.40;;;;;;5170914;27;20022;-70
2023/09/22 05:59:12;;;;;;;0.32;0.32;;;18.70;70.50;;;;;;5163701;27;20133;-71
2023/09/22 06:01:37;;;;;;;0.65;0.65;;;18.70;70.30;;;;;;5167315;27;20054;-70
2023/09/22 06:04:06;;;;;;;0.40;0.40;;;18.80;70.50;;;;;;5165603;27;20494;-70
2023/09/22 06:06:32;;;;;;;0.40;0.40;;;18.80;70.30;;;;;;5161836;27;20539;-70
2023/09/22 06:08:58;;;;;;;0.40;0.40;;;18.70;70.20;;;;;;5166426;27;20110;-69
2023/09/22 06:11:24;;;;;;;0.40;0.40;;;18.80;70.30;;;;;;5166466;27;20472;-69
2023/09/22 06:13:50;;;;;;;0.50;0.50;;;18.80;70.20;;;;;;5166673;27;20030;-69
2023/09/22 06:16:15;;;;;;;0.40;0.40;;;18.80;70.20;;;;;;5173276;27;20041;-69
2023/09/22 06:18:41;;;;;;;0.40;0.40;;;18.80;70.00;;;;;;5172004;27;20030;-69
2023/09/22 06:21:06;;;;;;;0.60;0.60;;;18.70;70.10;;;;;;5175300;27;20034;-70
2023/09/22 06:23:32;;;;;;;0.57;0.57;;;18.80;70.00;;;;;;5174852;27;20026;-69
2023/09/22 06:26:05;;;;;;;0.45;0.45;;;18.70;70.00;;;;;;5174023;27;20107;-70
2023/09/22 06:28:31;;;;;;;0.50;0.50;;;18.70;70.00;;;;;;5171385;27;20042;-70
2023/09/22 06:31:01;;;;;;;0.50;0.50;;;18.70;69.80;;;;;;5174943;27;20053;-70
2023/09/22 06:33:27;;;;;;;0.50;0.50;;;18.70;69.70;;;;;;5173892;27;20114;-70
2023/09/22 06:35:57;;;;;;;0.40;0.40;;;18.70;69.70;;;;;;5174012;27;20482;-70
2023/09/22 06:38:23;;;;;;;0.40;0.40;;;18.60;69.80;;;;;;5174220;27;20547;-71
2023/09/22 06:40:50;;;;;;;0.40;0.40;;;18.60;70.00;;;;;;5173816;27;20049;-69
2023/09/22 06:43:16;;;;;;;0.50;0.50;;;18.70;69.70;;;;;;5174480;27;20411;-69
2023/09/22 06:45:42;;;;;;;0.40;0.40;;;18.70;69.60;;;;;;5174760;27;20077;-68
2023/09/22 06:48:09;;;;;;;0.45;0.45;;;18.70;69.80;;;;;;5172373;27;20022;-66
2023/09/22 06:50:35;;;;;;;0.50;0.50;;;18.70;69.90;;;;;;5174061;27;20435;-66
2023/09/22 06:53:01;;;;;;;0.40;0.40;;;18.70;69.80;;;;;;5166656;27;20026;-67
2023/09/22 06:55:26;;;;;;;0.40;0.40;;;18.70;69.80;;;;;;5174257;27;20488;-66
2023/09/22 06:57:53;;;;;;;0.50;0.50;;;18.80;69.90;;;;;;5172202;27;20492;-66
2023/09/22 07:00:20;;;;;;;0.50;0.50;;;18.80;69.80;;;;;;5171678;27;20053;-66
2023/09/22 07:02:47;;;;;;;0.50;0.50;;;18.90;69.90;;;;;;5165016;27;20022;-68
2023/09/22 07:05:13;;;;;;;1.02;0.95;;;19.00;70.40;;;;;;5160231;27;20061;-68
2023/09/22 07:07:39;;;;;;;0.40;0.40;;;19.40;73.00;;;;;;5172479;27;20082;-67
2023/09/22 07:10:09;;;;;;;0.60;0.60;;;20.00;74.50;;;;;;5171461;27;20018;-68
2023/09/22 07:12:36;;;;;;;0.50;0.50;;;20.70;74.50;;;;;;5170744;27;20411;-68
2023/09/22 07:15:02;;;;;;;0.40;0.40;;;21.30;75.70;;;;;;5172154;27;20065;-69
2023/09/22 07:17:28;;;;;;;0.60;0.60;;;22.10;75.40;;;;;;5170134;27;20038;-66
2023/09/22 07:19:53;;;;;;;0.40;0.40;;;22.40;72.40;;;;;;5152440;27;20471;-68
2023/09/22 07:22:19;;;;;;;0.50;0.50;;;22.50;71.10;;;;;;5157367;27;20026;-66
2023/09/22 07:24:45;;;;;;;0.47;0.47;;;22.40;70.30;;;;;;5161542;27;20067;-66
2023/09/22 07:27:10;;;;;;;0.40;0.40;;;22.30;70.40;;;;;;5171339;27;20050;-67
2023/09/22 07:29:36;;;;;;;0.50;0.50;;;22.20;70.00;;;;;;5171416;27;20026;-68
2023/09/22 07:32:03;;;;;;;0.55;0.55;;;22.00;70.20;;;;;;5169540;27;20033;-68
2023/09/22 07:34:29;;;;;;;0.55;0.55;;;21.90;70.10;;;;;;5155143;27;20019;-68
2023/09/22 07:36:54;;;;;;;0.70;0.70;;;21.80;69.40;;;;;;5161192;27;20030;-68
2023/09/22 07:39:21;;;;;;;0.50;0.50;;;21.70;69.20;;;;;;5161433;27;20027;-68
2023/09/22 07:41:46;;;;;;;0.50;0.50;;;21.50;69.30;;;;;;5169312;27;20026;-68
2023/09/22 07:44:12;;;;;;;0.40;0.40;;;21.40;68.90;;;;;;5170227;27;20035;-68
2023/09/22 07:46:39;;;;;;;0.50;0.50;;;21.30;68.40;;;;;;5167728;27;20032;-68
2023/09/22 07:49:06;;;;;;;0.50;0.50;;;21.30;68.80;;;;;;5172113;27;20467;-65
2023/09/22 07:51:33;;;;;;;0.60;0.60;;;21.30;68.90;;;;;;5167851;27;20026;-68
2023/09/22 07:53:59;;;;;;;0.40;0.40;;;21.30;69.10;;;;;;5154490;27;20034;-68
2023/09/22 07:56:25;;;;;;;0.40;0.40;;;21.50;69.40;;;;;;5156268;27;20019;-68
2023/09/22 07:58:50;;;;;;;0.63;0.63;;;21.70;70.20;;;;;;5170958;27;20551;-68
2023/09/22 08:01:16;;;;;;;0.40;0.40;;;22.10;71.60;;;;;;5164824;27;20486;-68
2023/09/22 08:03:45;;;;;;;0.40;0.40;;;22.40;71.50;;;;;;5159095;27;20027;-67
2023/09/22 08:06:11;;;;;;;0.50;0.50;;;22.80;71.40;;;;;;5161634;27;20067;-66
2023/09/22 08:08:38;;;;;;;0.40;0.40;;;23.00;69.70;;;;;;5156169;27;20037;-67
2023/09/22 08:11:04;;;;;;;0.50;0.50;;;22.90;68.50;;;;;;5167802;27;20478;-66
2023/09/22 08:13:33;;;;;;;0.57;0.57;;;22.80;66.80;;;;;;5171761;27;20087;-66
2023/09/22 08:15:59;;;;;;;0.50;0.50;;;22.80;66.90;;;;;;5169247;27;20046;-68
2023/09/22 08:18:24;;;;;;;0.40;0.40;;;22.70;66.30;;;;;;5165582;27;20030;-68
2023/09/22 08:20:50;;;;;;;0.40;0.40;;;22.70;64.70;;;;;;5165275;27;20019;-68
2023/09/22 08:23:15;;;;;;;1.65;0.65;;;22.60;66.30;;;;;;5172612;27;20054;-68
2023/09/22 08:25:43;;;;;;;0.40;0.40;;;22.70;66.50;;;;;;5173480;27;20025;-68
2023/09/22 08:28:15;;;;;;;0.40;0.40;;;22.70;66.30;;;;;;5173441;27;20041;-69
2023/09/22 08:30:41;;;;;;;0.40;0.40;;;22.80;65.10;;;;;;5159736;27;20109;-68
2023/09/22 08:33:07;;;;;;;0.43;0.43;;;23.10;67.10;;;;;;5173161;27;20489;-68
2023/09/22 08:35:33;;;;;;;0.45;0.45;;;23.30;65.50;;;;;;5173352;27;20470;-68
2023/09/22 08:38:00;;;;;;;0.40;0.40;;;23.40;64.10;;;;;;5156959;27;20037;-67
2023/09/22 08:40:26;;;;;;;0.40;0.40;;;23.50;64.20;;;;;;5166941;27;20097;-67
2023/09/22 08:42:55;;;;;;;0.75;0.75;;;23.70;64.00;;;;;;5173414;27;20114;-68
2023/09/22 08:45:21;;;;;;;0.50;0.50;;;23.70;60.80;;;;;;5173076;27;20462;-68
2023/09/22 08:47:47;;;;;;;0.50;0.50;;;23.80;62.50;;;;;;5175006;27;20030;-68
2023/09/22 08:50:15;;;;;;;0.50;0.50;;;23.90;63.00;;;;;;5177149;27;20367;-69
2023/09/22 08:52:43;;;;;;;0.40;0.40;;;24.20;63.90;;;;;;5176976;27;20026;-68
2023/09/22 08:55:16;;;;;;;0.80;0.77;;;24.50;65.50;;;;;;5161715;27;20138;-68
2023/09/22 08:57:46;;;;;;;0.32;0.32;;;25.00;62.10;;;;;;5177456;27;20083;-68
2023/09/22 09:00:20;;;;;;;0.50;0.50;;;25.30;61.30;;;;;;5176559;27;20071;-68
2023/09/22 09:02:55;;;;;;;0.50;0.50;;;25.60;60.10;;;;;;5165666;27;20019;-67
2023/09/22 09:05:22;;;;;;;0.40;0.40;;;25.80;54.40;;;;;;5162502;27;20021;-67
2023/09/22 09:07:48;;;;;;;0.50;0.50;;;25.60;53.80;;;;;;5156810;27;20034;-69
2023/09/22 09:10:33;;;;;;;0.50;0.50;;;25.60;54.00;;;;;;5153685;27;20023;-69
2023/09/22 09:13:03;;;;;;;0.47;0.47;;;25.80;53.80;;;;;;5172920;27;20033;-68
2023/09/22 09:15:30;;;;;;;0.40;0.40;;;26.00;53.90;;;;;;5174476;27;20067;-69
2023/09/22 09:18:03;;;;;;;0.45;0.45;;;26.30;53.00;;;;;;5173098;27;20379;-69
2023/09/22 09:20:31;;;;;;;0.40;0.40;;;26.60;53.20;;;;;;5154917;27;20094;-67
2023/09/22 09:22:56;;;;;;;0.40;0.40;;;26.60;49.40;;;;;;5161379;27;20499;-67
2023/09/22 09:25:22;;;;;;;0.40;0.40;;;26.40;46.40;;;;;;5173322;27;20105;-68
2023/09/22 09:27:59;;;;;;;0.40;0.40;;;26.00;46.40;;;;;;5175880;27;20034;-68
2023/09/22 09:30:25;;;;;;;0.30;0.30;;;25.80;47.30;;;;;;5176199;27;20455;-68
2023/09/22 09:32:51;;;;;;;0.40;0.40;;;25.70;47.50;;;;;;5174771;27;20027;-69
2023/09/22 09:35:30;;;;;;;0.40;0.40;;;25.80;49.00;;;;;;5174719;27;20018;-69
2023/09/22 09:38:03;;;;;;;0.47;0.47;;;26.20;50.10;;;;;;5154930;27;20027;-69
2023/09/22 09:40:29;;;;;;;0.38;0.38;;;26.60;46.90;;;;;;5167880;27;20488;-69
2023/09/22 09:42:57;;;;;;;0.50;0.50;;;26.60;43.50;;;;;;5175501;27;20027;-69
2023/09/22 09:45:23;;;;;;;0.40;0.40;;;26.60;44.00;;;;;;5165048;27;20429;-69
2023/09/22 09:47:54;;;;;;;0.60;0.60;;;26.60;43.20;;;;;;5164237;27;20031;-69
2023/09/22 09:50:21;;;;;;;0.85;0.77;;;26.50;43.30;;;;;;5175355;27;20027;-67
2023/09/22 09:52:57;;;;;;;1.15;1.05;;;26.60;44.70;;;;;;5175562;27;20096;-68
2023/09/22 09:55:26;;;;;;;0.35;0.35;;;27.00;44.20;;;;;;5174174;27;20428;-67
2023/09/22 09:57:52;;;;;;;0.70;0.70;;;27.30;43.80;;;;;;5175106;27;20055;-69
2023/09/22 10:00:20;;;;;;;0.40;0.40;;;27.70;42.70;;;;;;5172321;27;20428;-69
2023/09/22 10:02:50;;;;;;;0.68;0.68;;;27.90;41.50;;;;;;5168997;27;20026;-69
2023/09/22 10:05:21;;;;;;;0.40;0.40;;;28.10;41.00;;;;;;5174727;27;20027;-69
2023/09/22 10:07:49;;;;;;;0.60;0.60;;;28.30;40.20;;;;;;5174143;27;20030;-69
2023/09/22 10:10:18;;;;;;;0.40;0.40;;;28.30;40.20;;;;;;5174828;27;20068;-67
2023/09/22 10:12:44;;;;;;;0.60;0.60;;;28.30;40.80;;;;;;5175467;27;20352;-69
2023/09/22 10:15:14;;;;;;;1.95;1.02;;;28.50;39.20;;;;;;5175230;27;20546;-69
2023/09/22 10:17:39;;;;;;;0.70;0.70;;;28.50;39.10;;;;;;5173444;27;20022;-69
2023/09/22 10:20:10;;;;;;;0.45;0.40;;;28.70;40.10;;;;;;5175057;27;20030;-69
2023/09/22 10:22:36;;;;;;;0.40;0.40;;;29.00;39.30;;;;;;5173295;27;20034;-69
2023/09/22 10:25:11;;;;;;;0.40;0.40;;;29.30;38.70;;;;;;5155449;27;20030;-69
2023/09/22 10:27:57;;;;;;;2.15;0.50;;;29.50;37.10;;;;;;5163982;27;20030;-69
2023/09/22 10:30:30;;;;;;;0.40;0.40;;;29.20;35.80;;;;;;5173257;27;20026;-69
2023/09/22 10:33:16;;;;;;;0.40;0.40;;;28.80;36.60;;;;;;5173198;27;20066;-69
2023/09/22 10:35:41;;;;;;;1.00;0.80;;;28.50;36.50;;;;;;5175106;27;20026;-69
2023/09/22 10:38:10;;;;;;;0.40;0.40;;;28.20;37.10;;;;;;5173239;27;20059;-70
2023/09/22 10:40:41;;;;;;;0.40;0.40;;;28.30;37.80;;;;;;5174754;27;20397;-69
2023/09/22 10:43:07;;;;;;;0.40;0.40;;;28.60;38.20;;;;;;5174700;27;20026;-69
2023/09/22 10:45:32;;;;;;;0.40;0.40;;;28.80;37.90;;;;;;5174479;27;20034;-67
2023/09/22 10:47:59;;;;;;;0.50;0.50;;;28.90;35.90;;;;;;5173465;27;20048;-69
2023/09/22 10:50:32;;;;;;;0.40;0.40;;;28.80;35.90;;;;;;5174994;27;20120;-68
2023/09/22 10:53:05;;;;;;;0.40;0.40;;;28.80;35.50;;;;;;5173121;27;20498;-68
2023/09/22 10:55:42;;;;;;;0.35;0.35;;;28.60;36.30;;;;;;5162968;27;20030;-69
2023/09/22 10:58:09;;;;;;;0.40;0.40;;;28.40;35.70;;;;;;5172101;27;20026;-68
2023/09/22 11:00:40;;;;;;;0.50;0.50;;;28.20;36.10;;;;;;5174858;27;20030;-68
2023/09/22 11:03:11;;;;;;;0.40;0.40;;;27.90;36.50;;;;;;5174392;27;20053;-68
2023/09/22 11:05:38;;;;;;;0.40;0.40;;;27.70;36.70;;;;;;5163014;27;20014;-68
2023/09/22 11:08:17;;;;;;;0.50;0.50;;;27.50;37.00;;;;;;5173385;27;20030;-69
2023/09/22 11:10:48;;;;;;;0.50;0.50;;;27.30;37.50;;;;;;5159313;27;20293;-68
2023/09/22 11:13:14;;;;;;;0.40;0.40;;;27.10;37.10;;;;;;5153072;27;20086;-69
2023/09/22 11:15:57;;;;;;;0.50;0.50;;;26.80;36.80;;;;;;5163651;27;20479;-69
2023/09/22 11:18:28;;;;;;;0.40;0.40;;;26.70;37.70;;;;;;5172735;27;20034;-69
2023/09/22 11:21:10;;;;;;;0.40;0.40;;;26.60;38.30;;;;;;5173414;27;20037;-69
2023/09/22 11:23:38;;;;;;;0.40;0.40;;;26.50;38.70;;;;;;5161333;27;20030;-69
2023/09/22 11:26:07;;;;;;;0.70;0.70;;;26.50;38.20;;;;;;5170652;27;20018;-69
2023/09/22 11:28:34;;;;;;;0.40;0.40;;;26.60;39.00;;;;;;5159885;27;20079;-69
2023/09/22 11:31:11;;;;;;;0.55;0.55;;;26.80;38.30;;;;;;5168173;27;20029;-69
2023/09/22 11:33:37;;;;;;;0.40;0.40;;;26.70;37.80;;;;;;5170113;27;20030;-69
2023/09/22 11:36:04;;;;;;;1.27;1.15;;;26.60;38.40;;;;;;5173166;27;20030;-69
2023/09/22 11:38:31;;;;;;;0.50;0.50;;;26.60;38.20;;;;;;5156820;27;20053;-69
2023/09/22 11:41:04;;;;;;;0.40;0.40;;;26.50;37.80;;;;;;5164292;27;20022;-69
2023/09/22 11:43:31;;;;;;;0.45;0.45;;;26.40;38.40;;;;;;5164417;27;20470;-69
2023/09/22 11:46:06;;;;;;;0.40;0.40;;;26.40;38.90;;;;;;5171372;27;20015;-70
2023/09/22 11:48:31;;;;;;;0.82;0.80;;;26.40;38.90;;;;;;5171191;27;20038;-69
2023/09/22 11:50:58;;;;;;;0.40;0.40;;;26.60;39.20;;;;;;5172102;27;20054;-69
2023/09/22 11:53:27;;;;;;;0.40;0.40;;;26.70;38.80;;;;;;5169992;27;20497;-69
2023/09/22 11:55:53;;;;;;;0.30;0.30;;;26.80;38.90;;;;;;5168741;27;20034;-69
2023/09/22 11:58:18;;;;;;;0.50;0.50;;;27.10;39.00;;;;;;5173700;27;20031;-69
2023/09/22 12:00:45;;;;;;;0.30;0.30;;;27.40;38.60;;;;;;5162354;27;20031;-69
2023/09/22 12:03:10;;;;;;;0.47;0.47;;;27.60;38.00;;;;;;5162700;27;20395;-69
2023/09/22 12:05:39;;;;;;;0.40;0.40;;;27.70;37.60;;;;;;5172733;27;20023;-69
2023/09/22 12:08:08;;;;;;;0.40;0.40;;;27.80;37.10;;;;;;5163264;27;20459;-69
2023/09/22 12:10:34;;;;;;;0.50;0.50;;;27.80;37.20;;;;;;5165281;27;20018;-69
2023/09/22 12:12:59;;;;;;;0.50;0.50;;;27.90;37.70;;;;;;5171822;27;20378;-70
2023/09/22 12:15:25;;;;;;;0.63;0.63;;;28.00;37.60;;;;;;5165211;27;20110;-70
2023/09/22 12:17:50;;;;;;;0.30;0.30;;;28.30;38.00;;;;;;5172366;27;20050;-70
2023/09/22 12:20:16;;;;;;;0.40;0.40;;;28.60;37.90;;;;;;5166298;27;20034;-70
2023/09/22 12:22:42;;;;;;;0.50;0.50;;;28.80;36.80;;;;;;5165835;27;20018;-70
2023/09/22 12:25:08;;;;;;;0.50;0.50;;;28.80;35.40;;;;;;5160066;27;20102;-70
2023/09/22 12:27:34;;;;;;;0.47;0.47;;;28.80;34.60;;;;;;5165667;27;21527;-70
2023/09/22 12:30:00;;;;;;;0.40;0.40;;;28.80;34.80;;;;;;5156951;27;20078;-70
2023/09/22 12:32:25;;;;;;;0.30;0.30;;;28.70;34.10;;;;;;5167995;27;20077;-70
2023/09/22 12:34:51;;;;;;;0.30;0.30;;;28.50;34.70;;;;;;5168008;27;20409;-70
2023/09/22 12:37:17;;;;;;;0.50;0.50;;;28.50;35.20;;;;;;5160387;27;20045;-68
2023/09/22 12:39:42;;;;;;;0.40;0.40;;;28.50;34.20;;;;;;5160205;27;20026;-70
2023/09/22 12:42:08;;;;;;;0.40;0.40;;;28.40;33.50;;;;;;5163442;27;20031;-68
2023/09/22 12:44:33;;;;;;;0.40;0.40;;;28.30;33.30;;;;;;5164287;27;20023;-70
2023/09/22 12:46:59;;;;;;;0.47;0.47;;;28.00;33.30;;;;;;5158737;27;20040;-69
2023/09/22 12:49:25;;;;;;;0.40;0.40;;;28.00;34.00;;;;;;5165447;27;20034;-68